< < Back
Terminal Aerodrome Forecast


Current Version              Previous Versions:   1  2  3  4  5  6  7  8  9  

Terminal Aerodrome Forecast

931
FTUS42 KCHS 281737
TAFSAV
TAF
KSAV 281737Z 2818/2918 10008KT P6SM SCT040
     FM290800 VRB03KT 4SM BR FEW004
     FM291300 04005KT P6SM FEW020=

Latest METAR

001
SAUS80 KWBC 290858
MTRSAV
METAR KSAV 290853Z AUTO 04003KT 10SM CLR 25/23 A2993 RMK AO2 SLP135
T02500233 56012 TSNO $


USA.gov is the U.S. government's official web portal to all federal, state and local government web resources and services.